Airfield :
LOGIN :

Register | Disclaimer

   EN    FR    IT 

 










Legend :    VFR   Marginal VFR   IFR   Intensive IFR   Very Intensive IFR
Visi :
Ceiling :
>= 8 km
>= 3000ft
5 to 8 km
1000 to 3000 ft
1500m to 5 km
500 to 1000 ft
800 to 1500m
200 to 500 ft
< 800m
< 200 ft
Symbols :   Thunderstorms  Fog  Heavy snow  Heavy precipitations  Wind > 20 kt
SIGMETs :     Misc.  Thunderstorms  Icing  Turbulence  Mountain Waves  Volcanic Ashes






- Airport Elevation : 200 ft
- IATA code : TCE


LRTC - Tulcea

CURRENT METAR :
  • 280430Z AUTO 05007KT 010V100 7000 OVC055/// 12/05 Q1021

EXPIRED METARs :
  • 280400Z AUTO 36004KT 310V060 9000 BKN055/// 11/06 Q1021
  • 280330Z AUTO 04009KT 010V080 9999 BKN055/// 12/06 Q1020
  • 280300Z AUTO 03011KT 9999 BKN055/// 12/07 Q1020
  • 280230Z AUTO 03009KT 7000 FEW055/// SCT075/// 11/07 Q1021
  • 280200Z AUTO 36008KT 9999 FEW070/// 11/07 Q1021

TAF TAF LRTC
Valid from the 28 at 03:00 until the 28 at 12:00 UTC


280200Z 2803/2812 36010KT CAVOK



MET'MAP, your aeronautical weather chart ! - Copyright ORBIFLY December 2007 - Disclaimer

ORBIFLY MET'MAP TEAM :

Programming & Development : Alexandra Zaïnal
Concept & original design : Baudouin d'Aumeries
Assistance for programming : Marc-Olivier Méhu
Technical & hardware support : Manuel Goepfert

Contact : metmap@orbifly.com




SOURCES & CREDITS :

   NOAA